Time;durP1;ratioP1;P1;durP2;ratioP2;P2;SDS_P1;SDS_P2;PMS_P1;PMS_P2;Temp;Humidity;BMP_temperature;BMP_pressure;BME280_temperature;BME280_humidity;BME280_pressure;Samples;Min_cycle;Max_cycle;Signal;HPM_P1;HPM_P2
2021/08/06 00:00:30;;;;;;;;;;;;;;;18.20;58.58;99987.41;1681584;82;20184;-74
2021/08/06 00:03:02;;;;;;;;;;;;;;;18.20;58.62;99981.34;1693009;82;20087;-74
2021/08/06 00:05:28;;;;;;;;;;;;;;;18.20;58.63;99981.34;1702615;84;20094;-74
2021/08/06 00:07:54;;;;;;;;;;;;;;;18.18;58.65;99977.53;1698058;84;20191;-74
2021/08/06 00:10:20;;;;;;;;;;;;;;;18.16;58.67;99975.94;1693849;84;20103;-74
2021/08/06 00:12:46;;;;;;;;;;;;;;;18.14;58.70;99970.79;1686066;84;20107;-74
2021/08/06 00:15:13;;;;;;;;;;;;;;;18.13;58.72;99971.72;1689791;84;20399;-74
2021/08/06 00:17:39;;;;;;;;;;;;;;;18.11;58.76;99967.50;1687546;84;20086;-74
2021/08/06 00:20:07;;;;;;;;;;;;;;;18.09;58.76;99971.98;1685249;83;20507;-74
2021/08/06 00:22:33;;;;;;;;;;;;;;;18.07;58.77;99968.61;1689747;84;20613;-74
2021/08/06 00:24:59;;;;;;;;;;;;;;;18.04;58.80;99964.86;1678821;84;20180;-74
2021/08/06 00:27:25;;;;;;;;;;;;;;;18.01;58.87;99962.42;1688792;83;20163;-74
2021/08/06 00:29:51;;;;;;;;;;;;;;;17.98;58.87;99958.67;1690895;84;20121;-73
2021/08/06 00:32:17;;;;;;;;;;;;;;;17.95;58.90;99954.45;1694222;84;21058;-73
2021/08/06 00:34:43;;;;;;;;;;;;;;;17.92;58.94;99955.94;1685815;83;20152;-73
2021/08/06 00:37:10;;;;;;;;;;;;;;;17.89;58.99;99950.88;1679834;82;20172;-74
2021/08/06 00:39:36;;;;;;;;;;;;;;;17.85;59.06;99948.89;1684462;84;20340;-74
2021/08/06 00:42:02;;;;;;;;;;;;;;;17.83;59.06;99955.14;1684169;82;20096;-74
2021/08/06 00:44:28;;;;;;;;;;;;;;;17.78;59.08;99950.17;1693951;83;20092;-74
2021/08/06 00:46:54;;;;;;;;;;;;;;;17.76;59.16;99954.64;1684320;83;20134;-74
2021/08/06 00:49:20;;;;;;;;;;;;;;;17.73;59.22;99948.74;1461758;82;10000610;-74
2021/08/06 00:51:46;;;;;;;;;;;;;;;17.71;59.26;99946.67;1704458;82;20409;-74
2021/08/06 00:54:15;;;;;;;;;;;;;;;17.69;59.24;99944.14;1706262;82;20122;-74
2021/08/06 00:56:41;;;;;;;;;;;;;;;17.68;59.32;99947.69;1728583;82;20122;-74
2021/08/06 00:59:07;;;;;;;;;;;;;;;17.66;59.34;99946.13;1700946;82;20269;-75
2021/08/06 01:01:35;;;;;;;;;;;;;;;17.66;59.43;99945.66;1712091;82;20172;-75
2021/08/06 01:04:11;;;;;;;;;;;;;;;17.63;59.41;99946.26;1710074;82;20100;-75
2021/08/06 01:06:43;;;;;;;;;;;;;;;17.62;59.48;99944.58;1713854;82;20123;-75
2021/08/06 01:09:18;;;;;;;;;;;;;;;17.59;59.47;99942.97;1716613;82;20108;-75
2021/08/06 01:11:48;;;;;;;;;;;;;;;17.58;59.55;99946.52;1730385;82;20092;-74
2021/08/06 01:14:16;;;;;;;;;;;;;;;17.59;59.57;99942.13;1707240;82;20132;-74
2021/08/06 01:16:44;;;;;;;;;;;;;;;17.56;59.63;99944.45;1696648;82;20127;-73
2021/08/06 01:19:28;;;;;;;;;;;;;;;17.51;59.61;99943.86;1727876;82;20124;-73
2021/08/06 01:22:04;;;;;;;;;;;;;;;17.49;59.75;99943.94;1724015;82;20474;-74
2021/08/06 01:24:32;;;;;;;;;;;;;;;17.49;59.79;99940.02;1701710;83;20100;-74
2021/08/06 01:27:04;;;;;;;;;;;;;;;17.49;59.80;99940.48;1710666;83;20123;-74
2021/08/06 01:29:30;;;;;;;;;;;;;;;17.50;59.83;99940.41;1694260;83;20135;-74
2021/08/06 01:31:56;;;;;;;;;;;;;;;17.49;59.88;99936.09;1702805;83;20087;-74
2021/08/06 01:34:22;;;;;;;;;;;;;;;17.49;59.95;99938.71;1716752;82;20306;-74
2021/08/06 01:36:49;;;;;;;;;;;;;;;17.49;59.96;99935.26;1716808;82;20095;-74
2021/08/06 01:39:16;;;;;;;;;;;;;;;17.49;59.97;99936.09;1698453;83;20104;-74
2021/08/06 01:41:44;;;;;;;;;;;;;;;17.48;60.09;99934.88;1718677;83;20099;-74
2021/08/06 01:44:20;;;;;;;;;;;;;;;17.47;59.97;99934.50;1714873;82;20102;-74
2021/08/06 01:46:55;;;;;;;;;;;;;;;17.43;60.04;99928.59;1712000;83;20085;-74
2021/08/06 01:49:27;;;;;;;;;;;;;;;17.42;60.14;99929.98;1715455;82;20105;-74
2021/08/06 01:51:58;;;;;;;;;;;;;;;17.42;60.14;99922.14;1700779;83;20124;-74
2021/08/06 01:54:27;;;;;;;;;;;;;;;17.41;60.23;99923.08;1704456;83;20091;-74
2021/08/06 01:56:54;;;;;;;;;;;;;;;17.41;60.30;99929.61;1720285;82;20131;-74
2021/08/06 01:59:22;;;;;;;;;;;;;;;17.39;60.29;99924.92;1716795;82;20091;-73
2021/08/06 02:01:48;;;;;;;;;;;;;;;17.38;60.36;99924.55;1702592;82;20095;-74
2021/08/06 02:04:14;;;;;;;;;;;;;;;17.37;60.34;99922.86;1716144;82;20126;-74
2021/08/06 02:06:43;;;;;;;;;;;;;;;17.34;60.43;99917.34;1710327;82;20187;-74
2021/08/06 02:09:14;;;;;;;;;;;;;;;17.35;60.48;99918.18;1717702;83;20091;-74
2021/08/06 02:11:41;;;;;;;;;;;;;;;17.38;60.53;99920.62;1702774;83;20110;-74
2021/08/06 02:14:07;;;;;;;;;;;;;;;17.38;60.57;99913.62;1697241;82;20172;-74
2021/08/06 02:16:33;;;;;;;;;;;;;;;17.40;60.57;99911.77;1710902;83;20098;-74
2021/08/06 02:19:01;;;;;;;;;;;;;;;17.40;60.59;99913.08;1700712;82;337789;-75
2021/08/06 02:21:32;;;;;;;;;;;;;;;17.40;60.57;99910.47;1702165;82;20446;-75
2021/08/06 02:24:03;;;;;;;;;;;;;;;17.38;60.70;99912.78;1706789;82;20105;-75
2021/08/06 02:26:31;;;;;;;;;;;;;;;17.37;60.65;99911.09;1717530;81;20102;-75
2021/08/06 02:28:57;;;;;;;;;;;;;;;17.35;60.80;99907.73;1709016;82;20137;-75
2021/08/06 02:31:25;;;;;;;;;;;;;;;17.32;60.82;99906.12;1705250;82;20457;-75
2021/08/06 02:33:51;;;;;;;;;;;;;;;17.35;60.89;99907.73;1711421;82;20149;-75
2021/08/06 02:36:17;;;;;;;;;;;;;;;17.36;60.91;99904.19;1690045;83;20554;-75
2021/08/06 02:38:43;;;;;;;;;;;;;;;17.36;60.96;99898.96;1704894;82;20194;-75
2021/08/06 02:41:09;;;;;;;;;;;;;;;17.35;60.97;99898.12;1701008;81;20108;-75
2021/08/06 02:43:35;;;;;;;;;;;;;;;17.34;61.01;99900.35;1715597;81;20676;-75
2021/08/06 02:46:01;;;;;;;;;;;;;;;17.34;61.07;99905.58;1709109;81;20428;-75
2021/08/06 02:48:27;;;;;;;;;;;;;;;17.36;61.16;99899.80;1711161;82;20442;-75
2021/08/06 02:50:59;;;;;;;;;;;;;;;17.38;61.08;99891.88;1720009;81;20451;-75
2021/08/06 02:53:26;;;;;;;;;;;;;;;17.36;61.17;99892.42;1707833;81;20107;-75
2021/08/06 02:55:52;;;;;;;;;;;;;;;17.37;61.22;99893.65;1734169;81;20585;-74
2021/08/06 02:58:20;;;;;;;;;;;;;;;17.39;61.23;99899.63;1718311;82;20446;-74
2021/08/06 03:00:46;;;;;;;;;;;;;;;17.39;61.26;99900.09;1721167;81;20428;-74
2021/08/06 03:03:12;;;;;;;;;;;;;;;17.38;61.26;99891.88;1718008;81;20434;-74
2021/08/06 03:05:38;;;;;;;;;;;;;;;17.38;61.28;99890.57;1720736;81;20442;-74
2021/08/06 03:08:06;;;;;;;;;;;;;;;17.37;61.32;99895.42;1724340;81;20469;-74
2021/08/06 03:10:34;;;;;;;;;;;;;;;17.39;61.36;99896.18;1704411;82;20539;-74
2021/08/06 03:13:00;;;;;;;;;;;;;;;17.37;61.39;99894.11;1727424;81;20259;-74
2021/08/06 03:15:27;;;;;;;;;;;;;;;17.35;61.43;99897.27;1707032;82;20436;-74
2021/08/06 03:17:53;;;;;;;;;;;;;;;17.34;61.47;99892.97;1722313;81;20511;-74
2021/08/06 03:20:22;;;;;;;;;;;;;;;17.32;61.51;99891.75;1713546;81;20463;-74
2021/08/06 03:22:49;;;;;;;;;;;;;;;17.33;61.54;99889.52;1706375;81;20536;-74
2021/08/06 03:25:16;;;;;;;;;;;;;;;17.35;61.57;99885.52;1714877;82;20512;-74
2021/08/06 03:27:42;;;;;;;;;;;;;;;17.36;61.59;99884.59;1717773;82;20507;-74
2021/08/06 03:30:12;;;;;;;;;;;;;;;17.35;61.53;99881.13;1734000;81;20407;-74
2021/08/06 03:32:39;;;;;;;;;;;;;;;17.32;61.59;99881.30;1697806;82;20116;-74
2021/08/06 03:35:06;;;;;;;;;;;;;;;17.32;61.74;99882.61;1723749;81;20454;-74
2021/08/06 03:37:46;;;;;;;;;;;;;;;17.34;61.75;99883.83;1711329;82;20426;-74
2021/08/06 03:40:13;;;;;;;;;;;;;;;17.31;61.73;99887.92;1756280;81;20398;-74
2021/08/06 03:42:40;;;;;;;;;;;;;;;17.30;61.82;99887.08;1725967;82;20450;-74
2021/08/06 03:45:08;;;;;;;;;;;;;;;17.31;61.86;99888.77;1718539;81;20418;-74
2021/08/06 03:47:34;;;;;;;;;;;;;;;17.32;61.96;99881.77;1712465;81;20416;-74
2021/08/06 03:50:01;;;;;;;;;;;;;;;17.35;62.03;99885.52;1733763;80;20453;-74
2021/08/06 03:52:27;;;;;;;;;;;;;;;17.36;62.01;99881.97;1742419;81;20422;-74
2021/08/06 03:54:53;;;;;;;;;;;;;;;17.38;62.02;99886.66;1735159;82;20226;-74
2021/08/06 03:57:18;;;;;;;;;;;;;;;17.39;62.04;99884.42;1751767;80;20662;-74
2021/08/06 03:59:44;;;;;;;;;;;;;;;17.40;62.10;99882.18;1748982;81;20190;-74
2021/08/06 04:02:10;;;;;;;;;;;;;;;17.42;62.18;99875.94;1741747;80;20439;-75
2021/08/06 04:04:38;;;;;;;;;;;;;;;17.44;62.21;99881.92;1723313;82;20403;-75
2021/08/06 04:07:04;;;;;;;;;;;;;;;17.46;62.23;99883.99;1709901;82;20513;-75
2021/08/06 04:09:30;;;;;;;;;;;;;;;17.47;62.32;99876.99;1727252;82;20404;-75
2021/08/06 04:11:56;;;;;;;;;;;;;;;17.48;62.30;99878.22;1707071;82;20161;-75
2021/08/06 04:14:22;;;;;;;;;;;;;;;17.50;62.33;99875.05;1735957;81;20748;-75
2021/08/06 04:16:49;;;;;;;;;;;;;;;17.51;62.36;99870.66;1748768;81;20398;-75
2021/08/06 04:19:15;;;;;;;;;;;;;;;17.53;62.39;99878.80;1713557;82;20372;-75
2021/08/06 04:21:41;;;;;;;;;;;;;;;17.57;62.36;99872.09;1734445;80;20093;-75
2021/08/06 04:24:13;;;;;;;;;;;;;;;17.58;62.44;99868.55;1747939;81;20445;-75
2021/08/06 04:26:39;;;;;;;;;;;;;;;17.60;62.47;99870.15;1735198;81;20184;-75
2021/08/06 04:29:05;;;;;;;;;;;;;;;17.62;62.51;99868.29;1750714;81;20374;-75
2021/08/06 04:31:35;;;;;;;;;;;;;;;17.63;62.51;99863.44;1732420;82;20104;-75
2021/08/06 04:34:01;;;;;;;;;;;;;;;17.65;62.53;99868.15;1723328;82;20450;-75
2021/08/06 04:36:27;;;;;;;;;;;;;;;17.70;62.57;99866.55;1724076;82;20139;-73
2021/08/06 04:38:54;;;;;;;;;;;;;;;17.69;62.63;99868.31;1724932;82;20143;-73
2021/08/06 04:41:20;;;;;;;;;;;;;;;17.69;62.68;99868.31;1717829;82;20210;-73
2021/08/06 04:43:46;;;;;;;;;;;;;;;17.70;62.71;99870.00;1717179;81;20296;-73
2021/08/06 04:46:13;;;;;;;;;;;;;;;17.72;62.76;99868.61;1731746;82;20152;-73
2021/08/06 04:48:39;;;;;;;;;;;;;;;17.74;62.80;99864.97;1727547;81;20577;-73
2021/08/06 04:51:06;;;;;;;;;;;;;;;17.76;62.87;99865.73;1745295;80;20491;-73
2021/08/06 04:53:35;;;;;;;;;;;;;;;17.79;62.90;99861.63;1721183;81;20216;-73
2021/08/06 04:56:01;;;;;;;;;;;;;;;17.84;62.99;99861.37;1728817;81;20189;-73
2021/08/06 04:58:28;;;;;;;;;;;;;;;17.83;62.98;99859.68;1729210;82;20142;-73
2021/08/06 05:00:53;;;;;;;;;;;;;;;17.85;63.08;99856.52;1740032;80;20220;-73
2021/08/06 05:03:19;;;;;;;;;;;;;;;17.88;63.13;99860.73;1726661;80;20225;-73
2021/08/06 05:05:45;;;;;;;;;;;;;;;17.89;63.13;99846.72;1731866;81;20221;-74
2021/08/06 05:08:11;;;;;;;;;;;;;;;17.93;63.15;99848.22;1748584;81;20259;-74
2021/08/06 05:10:37;;;;;;;;;;;;;;;17.97;63.15;99853.65;1707559;81;20281;-74
2021/08/06 05:13:04;;;;;;;;;;;;;;;18.01;63.23;99849.92;1746435;81;20133;-74
2021/08/06 05:15:30;;;;;;;;;;;;;;;18.05;63.22;99848.34;1750174;81;20229;-74
2021/08/06 05:17:56;;;;;;;;;;;;;;;18.09;63.29;99854.24;1745729;80;20205;-74
2021/08/06 05:20:22;;;;;;;;;;;;;;;18.12;63.29;99853.59;1737982;80;20186;-74
2021/08/06 05:22:49;;;;;;;;;;;;;;;18.15;63.29;99856.03;1743575;81;20322;-74
2021/08/06 05:25:15;;;;;;;;;;;;;;;18.21;63.36;99850.87;1743684;81;20296;-74
2021/08/06 05:27:43;;;;;;;;;;;;;;;18.24;63.37;99849.84;1709600;81;20175;-74
2021/08/06 05:30:11;;;;;;;;;;;;;;;18.22;63.30;99846.02;1706830;83;20178;-74
2021/08/06 05:32:37;;;;;;;;;;;;;;;18.27;63.39;99856.20;1746306;80;20090;-74
2021/08/06 05:35:04;;;;;;;;;;;;;;;18.29;63.41;99859.57;1736091;81;20090;-74
2021/08/06 05:37:30;;;;;;;;;;;;;;;18.31;63.40;99859.02;1748153;81;20161;-74
2021/08/06 05:39:56;;;;;;;;;;;;;;;18.34;63.47;99853.59;1722212;81;20110;-74
2021/08/06 05:42:22;;;;;;;;;;;;;;;18.37;63.45;99856.87;1734715;81;20642;-74
2021/08/06 05:44:48;;;;;;;;;;;;;;;18.38;63.56;99848.09;1749986;80;20083;-74
2021/08/06 05:47:14;;;;;;;;;;;;;;;18.41;63.45;99856.22;1737486;80;20124;-74
2021/08/06 05:49:40;;;;;;;;;;;;;;;18.40;63.40;99851.45;1746973;80;20092;-74
2021/08/06 05:52:06;;;;;;;;;;;;;;;18.41;63.50;99855.75;1738578;81;20114;-74
2021/08/06 05:54:33;;;;;;;;;;;;;;;18.44;63.59;99856.87;1751615;80;20097;-75
2021/08/06 05:56:59;;;;;;;;;;;;;;;18.47;63.61;99858.47;1705176;81;20156;-75
2021/08/06 05:59:25;;;;;;;;;;;;;;;18.50;63.66;99855.20;1731461;81;20420;-74
2021/08/06 06:02:03;;;;;;;;;;;;;;;18.52;63.67;99858.56;1730199;81;20135;-74
2021/08/06 06:04:30;;;;;;;;;;;;;;;18.58;63.74;99860.44;1715099;81;20110;-75
2021/08/06 06:06:56;;;;;;;;;;;;;;;18.63;63.75;99859.26;1707701;82;20173;-75
2021/08/06 06:09:22;;;;;;;;;;;;;;;18.68;63.63;99861.13;1723185;81;20100;-75
2021/08/06 06:11:50;;;;;;;;;;;;;;;18.72;63.73;99866.98;1755829;80;20098;-75
2021/08/06 06:14:16;;;;;;;;;;;;;;;18.77;63.73;99867.55;1715058;81;20195;-75
2021/08/06 06:16:42;;;;;;;;;;;;;;;18.81;63.76;99869.05;1730334;82;20207;-75
2021/08/06 06:19:09;;;;;;;;;;;;;;;18.88;63.80;99872.97;1726005;82;20142;-75
2021/08/06 06:21:35;;;;;;;;;;;;;;;18.95;63.84;99862.95;1715798;81;20107;-75
2021/08/06 06:24:00;;;;;;;;;;;;;;;19.01;63.83;99863.87;1717994;81;20107;-75
2021/08/06 06:26:27;;;;;;;;;;;;;;;19.05;63.71;99864.90;1719551;81;20138;-77
2021/08/06 06:28:53;;;;;;;;;;;;;;;19.10;63.59;99867.23;1714075;82;20165;-76
2021/08/06 06:31:19;;;;;;;;;;;;;;;19.12;63.73;99866.20;1722291;81;20222;-77
2021/08/06 06:33:45;;;;;;;;;;;;;;;19.16;63.67;99866.38;1756917;80;20163;-77
2021/08/06 06:36:11;;;;;;;;;;;;;;;19.20;63.72;99868.33;1741244;81;20594;-77
2021/08/06 06:38:37;;;;;;;;;;;;;;;19.23;63.62;99868.61;1741517;80;20128;-77
2021/08/06 06:41:03;;;;;;;;;;;;;;;19.25;63.67;99871.94;1742497;82;20166;-77
2021/08/06 06:43:29;;;;;;;;;;;;;;;19.28;63.70;99878.30;1728130;82;20224;-77
2021/08/06 06:45:55;;;;;;;;;;;;;;;19.32;63.51;99875.39;1734119;80;20119;-77
2021/08/06 06:48:24;;;;;;;;;;;;;;;19.33;63.59;99871.83;1739157;80;20155;-77
2021/08/06 06:50:49;;;;;;;;;;;;;;;19.36;63.66;99881.28;1725609;81;20129;-76
2021/08/06 06:53:15;;;;;;;;;;;;;;;19.40;63.66;99877.52;1745023;80;20096;-77
2021/08/06 06:55:47;;;;;;;;;;;;;;;19.43;63.63;99874.70;1741872;80;20092;-77
2021/08/06 06:58:13;;;;;;;;;;;;;;;19.47;63.66;99879.66;1759074;80;20249;-77
2021/08/06 07:00:39;;;;;;;;;;;;;;;19.55;63.69;99878.35;1754446;80;20143;-77
2021/08/06 07:03:08;;;;;;;;;;;;;;;19.63;63.63;99880.01;1744711;80;20091;-77
2021/08/06 07:05:34;;;;;;;;;;;;;;;19.69;63.56;99886.17;1732446;81;20206;-77
2021/08/06 07:08:02;;;;;;;;;;;;;;;19.73;63.47;99882.41;1735496;82;20183;-77
2021/08/06 07:10:28;;;;;;;;;;;;;;;19.77;63.41;99883.86;1740625;82;20142;-77
2021/08/06 07:12:55;;;;;;;;;;;;;;;19.82;63.46;99889.64;1760315;80;20098;-77
2021/08/06 07:15:21;;;;;;;;;;;;;;;19.90;63.42;99890.45;1756875;80;20105;-77
2021/08/06 07:17:47;;;;;;;;;;;;;;;19.93;63.23;99891.09;1732155;80;20082;-77
2021/08/06 07:20:15;;;;;;;;;;;;;;;19.93;63.03;99893.71;1729403;82;20457;-78
2021/08/06 07:22:41;;;;;;;;;;;;;;;19.92;63.08;99888.09;1735792;80;20113;-78
2021/08/06 07:25:11;;;;;;;;;;;;;;;19.96;63.05;99897.92;1752774;80;20140;-77
2021/08/06 07:27:38;;;;;;;;;;;;;;;20.00;63.11;99892.36;1727935;82;20140;-77
2021/08/06 07:30:05;;;;;;;;;;;;;;;19.96;62.83;99890.89;1718804;81;20108;-77
2021/08/06 07:32:31;;;;;;;;;;;;;;;19.99;62.93;99893.31;1753302;80;20130;-74
2021/08/06 07:34:57;;;;;;;;;;;;;;;20.00;62.83;99896.77;1738651;81;20182;-74
2021/08/06 07:37:26;;;;;;;;;;;;;;;20.02;62.78;99903.61;1719038;83;20104;-74
2021/08/06 07:39:52;;;;;;;;;;;;;;;20.01;62.71;99899.30;1733745;82;20091;-75
2021/08/06 07:42:18;;;;;;;;;;;;;;;20.01;62.73;99907.17;1729155;80;20105;-75
2021/08/06 07:44:50;;;;;;;;;;;;;;;20.02;62.47;99902.77;1742611;82;20101;-75
2021/08/06 07:47:16;;;;;;;;;;;;;;;19.97;62.35;99899.12;1746220;80;20142;-78
2021/08/06 07:49:43;;;;;;;;;;;;;;;19.98;62.50;99900.81;1750591;80;20081;-75
2021/08/06 07:52:10;;;;;;;;;;;;;;;20.02;62.58;99898.36;1737259;80;20137;-75
2021/08/06 07:54:36;;;;;;;;;;;;;;;20.06;62.47;99907.70;1728776;81;20093;-75
2021/08/06 07:57:03;;;;;;;;;;;;;;;20.08;62.36;99902.36;1735717;82;20119;-73
2021/08/06 07:59:29;;;;;;;;;;;;;;;20.12;62.28;99899.42;1739712;80;20143;-75
2021/08/06 08:01:55;;;;;;;;;;;;;;;20.19;62.32;99901.64;1740844;80;20108;-75
2021/08/06 08:04:21;;;;;;;;;;;;;;;20.28;62.28;99904.93;1736939;82;21253;-75
2021/08/06 08:06:47;;;;;;;;;;;;;;;20.36;62.34;99898.22;1743957;82;20208;-75
2021/08/06 08:09:13;;;;;;;;;;;;;;;20.46;62.22;99903.72;1747125;80;20165;-75
2021/08/06 08:11:39;;;;;;;;;;;;;;;20.52;61.85;99907.25;1741234;80;20107;-75
2021/08/06 08:14:05;;;;;;;;;;;;;;;20.55;61.98;99910.97;1740257;80;20115;-77
2021/08/06 08:16:31;;;;;;;;;;;;;;;20.62;62.13;99903.05;1742821;80;20859;-76
2021/08/06 08:18:58;;;;;;;;;;;;;;;20.69;61.79;99909.56;1738854;82;20094;-76
2021/08/06 08:21:24;;;;;;;;;;;;;;;20.76;61.90;99906.03;1740421;80;20127;-75
2021/08/06 08:23:50;;;;;;;;;;;;;;;20.85;61.72;99909.78;1741428;80;20118;-78
2021/08/06 08:26:16;;;;;;;;;;;;;;;20.92;61.68;99914.50;1740972;80;20155;-78
2021/08/06 08:28:42;;;;;;;;;;;;;;;21.01;61.71;99912.55;1731020;80;20418;-78
2021/08/06 08:31:08;;;;;;;;;;;;;;;21.06;61.56;99909.59;1738621;80;20165;-78
2021/08/06 08:33:34;;;;;;;;;;;;;;;21.10;61.49;99909.75;1751445;81;20218;-78
2021/08/06 08:36:00;;;;;;;;;;;;;;;21.09;61.32;99914.64;1742695;80;20256;-78
2021/08/06 08:38:26;;;;;;;;;;;;;;;21.05;61.10;99911.38;1724106;81;20132;-78
2021/08/06 08:40:54;;;;;;;;;;;;;;;21.03;61.27;99916.38;1670392;81;5000201;-78
2021/08/06 08:43:20;;;;;;;;;;;;;;;21.01;61.21;99917.80;1716502;81;20118;-78
2021/08/06 08:45:54;;;;;;;;;;;;;;;20.98;61.19;99917.18;1685819;82;20181;-78
2021/08/06 08:48:20;;;;;;;;;;;;;;;20.93;61.04;99916.19;1695179;82;20441;-78
2021/08/06 08:50:47;;;;;;;;;;;;;;;20.90;60.96;99919.50;1721712;81;20205;-78
2021/08/06 08:53:13;;;;;;;;;;;;;;;20.90;60.91;99910.30;1711619;81;20254;-78
2021/08/06 08:55:40;;;;;;;;;;;;;;;20.89;60.82;99915.19;1712275;82;20218;-78
2021/08/06 08:58:06;;;;;;;;;;;;;;;20.88;60.81;99910.41;1714490;82;20582;-78
2021/08/06 09:00:33;;;;;;;;;;;;;;;20.87;60.69;99917.08;1718311;82;20202;-78
2021/08/06 09:03:00;;;;;;;;;;;;;;;20.89;60.76;99914.72;1720617;81;20210;-78
2021/08/06 09:05:28;;;;;;;;;;;;;;;20.93;60.71;99904.83;1716873;82;21205;-78
2021/08/06 09:07:55;;;;;;;;;;;;;;;20.98;60.64;99915.86;1719709;82;20205;-78
2021/08/06 09:10:29;;;;;;;;;;;;;;;20.99;60.45;99912.29;1719442;81;20236;-78
2021/08/06 09:13:02;;;;;;;;;;;;;;;21.02;60.28;99913.39;1703553;83;20164;-78
2021/08/06 09:15:46;;;;;;;;;;;;;;;21.05;60.19;99905.28;1712692;83;20196;-78
2021/08/06 09:18:33;;;;;;;;;;;;;;;21.10;60.09;99912.38;1701800;83;20206;-78
2021/08/06 09:21:16;;;;;;;;;;;;;;;21.17;60.05;99911.47;1710878;81;20212;-78
2021/08/06 09:24:00;;;;;;;;;;;;;;;21.27;60.00;99915.16;1712611;83;20229;-78
2021/08/06 09:26:33;;;;;;;;;;;;;;;21.33;59.88;99922.10;1723936;82;20142;-78
2021/08/06 09:29:12;;;;;;;;;;;;;;;21.39;59.76;99917.72;1723026;81;20162;-78
2021/08/06 09:31:53;;;;;;;;;;;;;;;21.40;59.54;99913.30;1716986;81;20231;-78
2021/08/06 09:34:36;;;;;;;;;;;;;;;21.41;59.52;99914.98;1713322;83;20130;-78
2021/08/06 09:37:10;;;;;;;;;;;;;;;21.48;59.48;99918.84;1707647;83;20497;-78
2021/08/06 09:39:47;;;;;;;;;;;;;;;21.60;59.33;99919.75;1704014;82;20457;-78
2021/08/06 09:42:32;;;;;;;;;;;;;;;21.66;59.18;99910.94;1715664;83;20124;-78
2021/08/06 09:45:04;;;;;;;;;;;;;;;21.77;59.18;99912.31;1707946;83;20130;-78
2021/08/06 09:47:33;;;;;;;;;;;;;;;21.87;58.97;99912.92;1716832;83;20135;-78
2021/08/06 09:50:02;;;;;;;;;;;;;;;21.91;58.81;99917.84;1719406;83;20112;-78
2021/08/06 09:52:34;;;;;;;;;;;;;;;21.99;58.79;99922.06;1702282;81;20122;-79
2021/08/06 09:55:01;;;;;;;;;;;;;;;22.07;58.58;99919.73;1705905;82;20104;-78
2021/08/06 09:57:27;;;;;;;;;;;;;;;22.07;58.50;99919.73;1705680;81;20120;-78
2021/08/06 09:59:55;;;;;;;;;;;;;;;22.08;58.49;99928.48;1704449;81;20742;-78
2021/08/06 10:02:30;;;;;;;;;;;;;;;22.08;58.46;99927.16;1689006;83;20120;-78
2021/08/06 10:05:11;;;;;;;;;;;;;;;22.03;57.94;99927.98;1688294;82;20112;-78
2021/08/06 10:07:41;;;;;;;;;;;;;;;21.98;58.10;99933.55;1713451;83;20133;-78
2021/08/06 10:10:10;;;;;;;;;;;;;;;21.94;58.07;99931.26;1699809;83;20152;-78
2021/08/06 10:12:36;;;;;;;;;;;;;;;21.87;57.80;99935.30;1693996;83;20133;-78
2021/08/06 10:15:03;;;;;;;;;;;;;;;21.82;57.89;99930.88;1696941;83;20476;-78
2021/08/06 10:17:29;;;;;;;;;;;;;;;21.77;57.98;99934.68;1698960;81;20463;-78
2021/08/06 10:19:55;;;;;;;;;;;;;;;21.71;57.58;99934.29;1693536;83;20199;-78
2021/08/06 10:22:21;;;;;;;;;;;;;;;21.65;57.34;99925.05;1710122;83;20205;-78
2021/08/06 10:24:52;;;;;;;;;;;;;;;21.63;57.32;99932.69;1700229;83;21160;-78
2021/08/06 10:27:23;;;;;;;;;;;;;;;21.55;57.27;99929.30;1687951;83;20234;-78
2021/08/06 10:30:11;;;;;;;;;;;;;;;21.55;57.29;99925.83;1660108;85;20530;-78
2021/08/06 10:32:39;;;;;;;;;;;;;;;21.56;57.10;99928.81;1685805;84;20181;-79
2021/08/06 10:35:15;;;;;;;;;;;;;;;21.59;57.13;99929.91;1690247;83;20178;-78
2021/08/06 10:37:53;;;;;;;;;;;;;;;21.61;57.05;99931.95;1685062;84;20198;-78
2021/08/06 10:40:38;;;;;;;;;;;;;;;21.67;56.72;99929.72;1683791;84;20202;-78
2021/08/06 10:43:13;;;;;;;;;;;;;;;21.72;56.85;99926.28;1675213;83;20117;-78
2021/08/06 10:45:46;;;;;;;;;;;;;;;21.79;56.79;99929.30;1687919;84;20179;-78
2021/08/06 10:48:40;;;;;;;;;;;;;;;21.85;57.06;99924.87;1688415;83;20257;-78
2021/08/06 10:51:19;;;;;;;;;;;;;;;21.83;56.54;99928.12;1696699;83;20525;-78
2021/08/06 10:53:49;;;;;;;;;;;;;;;;;;1668161;84;20184;-78
2021/08/06 10:56:24;;;;;;;;;;;;;;;21.97;56.49;99919.19;1699175;82;20237;-78
2021/08/06 10:58:53;;;;;;;;;;;;;;;22.04;56.27;99927.02;1694752;83;20234;-78
2021/08/06 11:01:32;;;;;;;;;;;;;;;22.07;56.13;99921.53;1665371;84;20200;-78
2021/08/06 11:04:06;;;;;;;;;;;;;;;22.06;56.22;99917.22;1663784;84;20163;-77
2021/08/06 11:06:35;;;;;;;;;;;;;;;22.12;56.09;99920.23;1673148;84;20121;-77
2021/08/06 11:09:11;;;;;;;;;;;;;;;22.08;55.97;99919.26;1666072;86;20134;-78
2021/08/06 11:11:46;;;;;;;;;;;;;;;22.16;55.81;99920.00;1691950;84;20214;-77
2021/08/06 11:14:14;;;;;;;;;;;;;;;22.24;55.64;99914.52;1689959;84;20119;-78
2021/08/06 11:16:57;;;;;;;;;;;;;;;22.34;55.88;99919.94;1689657;84;20113;-79
2021/08/06 11:19:37;;;;;;;;;;;;;;;22.36;55.38;99915.36;1699976;83;20118;-75
2021/08/06 11:22:07;;;;;;;;;;;;;;;22.41;55.36;99915.38;1689790;82;20114;-76
2021/08/06 11:24:44;;;;;;;;;;;;;;;22.50;55.29;99916.95;1665295;84;20470;-77
2021/08/06 11:27:10;;;;;;;;;;;;;;;22.56;55.09;99914.69;1696479;82;20174;-77
2021/08/06 11:29:37;;;;;;;;;;;;;;;22.55;54.88;99915.64;1698180;83;20148;-77
2021/08/06 11:32:06;;;;;;;;;;;;;;;22.51;54.79;99911.56;1757999;81;20414;-77
2021/08/06 11:34:53;;;;;;;;;;;;;;;22.50;54.63;99905.09;1761167;81;20398;-77
2021/08/06 11:37:21;;;;;;;;;;;;;;;22.49;54.52;99908.68;1758900;81;20130;-77
2021/08/06 11:40:06;;;;;;;;;;;;;;;22.51;54.35;99913.36;1760885;79;20962;-77
2021/08/06 11:42:32;;;;;;;;;;;;;;;22.52;54.22;99911.92;1762651;81;20106;-77
2021/08/06 11:44:58;;;;;;;;;;;;;;;22.58;54.33;99906.66;1757621;81;20129;-75
2021/08/06 11:47:43;;;;;;;;;;;;;;;22.58;54.09;99910.61;1760246;81;20106;-76
2021/08/06 11:50:19;;;;;;;;;;;;;;;22.57;53.83;99909.77;1746413;81;20096;-76
2021/08/06 11:52:47;;;;;;;;;;;;;;;22.57;54.18;99900.55;1749035;81;20138;-73
2021/08/06 11:55:16;;;;;;;;;;;;;;;22.56;53.51;99904.14;1755520;79;20089;-76
2021/08/06 11:57:46;;;;;;;;;;;;;;;22.57;53.42;99900.55;1762383;81;20106;-75
2021/08/06 12:00:24;;;;;;;;;;;;;;;22.64;53.36;99893.84;1750050;81;20096;-75
2021/08/06 12:03:00;;;;;;;;;;;;;;;22.71;53.29;99896.38;1756281;81;20082;-75
2021/08/06 12:05:26;;;;;;;;;;;;;;;22.77;53.03;99897.21;1762590;81;20089;-76
2021/08/06 12:07:52;;;;;;;;;;;;;;;22.85;52.93;99894.02;1747184;81;20154;-76
2021/08/06 12:10:27;;;;;;;;;;;;;;;22.80;52.73;99883.47;1755256;81;20162;-76
2021/08/06 12:12:54;;;;;;;;;;;;;;;22.82;52.67;99883.70;1755743;81;20173;-76
2021/08/06 12:15:23;;;;;;;;;;;;;;;22.93;52.66;99873.13;1744155;81;20102;-76
2021/08/06 12:18:10;;;;;;;;;;;;;;;23.07;52.62;99886.54;1756947;81;20141;-76
2021/08/06 12:20:39;;;;;;;;;;;;;;;23.15;52.44;99884.61;1675719;85;20136;-76
2021/08/06 12:23:05;;;;;;;;;;;;;;;23.21;52.23;99876.21;1664830;85;20208;-77
2021/08/06 12:25:32;;;;;;;;;;;;;;;23.23;52.24;99875.61;1668830;85;20132;-77
2021/08/06 12:28:01;;;;;;;;;;;;;;;23.28;52.11;99874.76;1661859;86;20346;-76
2021/08/06 12:30:30;;;;;;;;;;;;;;;23.29;51.91;99878.59;1659734;86;20113;-76
2021/08/06 12:32:56;;;;;;;;;;;;;;;23.33;51.99;99880.50;1658812;86;20442;-77
2021/08/06 12:35:26;;;;;;;;;;;;;;;23.37;51.75;99877.98;1662386;84;20501;-77
2021/08/06 12:37:53;;;;;;;;;;;;;;;23.35;51.64;99878.58;1664157;86;20109;-77
2021/08/06 12:40:19;;;;;;;;;;;;;;;23.35;51.73;99871.98;1663314;86;20141;-77
2021/08/06 12:42:46;;;;;;;;;;;;;;;23.42;51.65;99876.61;1656490;86;20186;-76
2021/08/06 12:45:20;;;;;;;;;;;;;;;23.46;51.24;99874.56;1658891;86;20165;-76
2021/08/06 12:47:51;;;;;;;;;;;;;;;23.43;51.34;99871.69;1662290;86;20101;-76
2021/08/06 12:50:24;;;;;;;;;;;;;;;23.44;51.22;99869.41;1659502;86;20196;-76
2021/08/06 12:53:02;;;;;;;;;;;;;;;23.49;51.44;99867.72;1748755;80;20458;-76
2021/08/06 12:55:30;;;;;;;;;;;;;;;23.48;50.88;99870.48;1755493;80;20454;-76